createdAt,value
2022-09-11T09:56:52.347Z,18.30
2022-09-11T10:01:58.218Z,18.00
2022-09-11T10:07:14.235Z,17.90
2022-09-11T10:12:31.265Z,17.70
2022-09-11T10:17:38.423Z,17.60
2022-09-11T10:22:45.155Z,17.70
2022-09-11T10:28:10.121Z,18.00
2022-09-11T10:33:20.859Z,18.10
2022-09-11T10:38:41.497Z,19.00
2022-09-11T10:43:50.672Z,19.30
2022-09-11T10:49:12.163Z,19.70
2022-09-11T10:54:40.097Z,19.50
2022-09-11T11:00:12.700Z,20.00
2022-09-11T11:05:43.559Z,19.50
2022-09-11T11:11:13.444Z,19.40
2022-09-11T11:16:32.743Z,18.90
2022-09-11T11:22:20.594Z,18.80
2022-09-11T11:27:52.000Z,18.80
2022-09-11T11:33:34.144Z,19.00
2022-09-11T11:38:58.886Z,20.20
2022-09-11T11:44:07.753Z,20.30
2022-09-11T11:49:25.695Z,20.40
2022-09-11T11:54:39.324Z,20.70
2022-09-11T12:00:00.765Z,20.70
2022-09-11T12:05:26.630Z,20.20
2022-09-11T12:10:38.499Z,19.90
2022-09-11T12:16:15.469Z,20.20
2022-09-11T12:21:31.286Z,20.70
2022-09-11T12:26:36.525Z,20.60
2022-09-11T12:32:05.522Z,20.40
2022-09-11T12:37:26.114Z,20.10
2022-09-11T12:42:36.696Z,19.80
2022-09-11T12:47:44.445Z,19.80
2022-09-11T12:52:55.332Z,20.00
2022-09-11T12:58:03.625Z,19.50
2022-09-11T13:03:18.138Z,19.10
2022-09-11T13:08:27.752Z,19.40
2022-09-11T13:13:38.685Z,19.30
2022-09-11T13:18:46.847Z,19.50
2022-09-11T13:23:55.278Z,19.80
2022-09-11T13:29:02.161Z,19.80
2022-09-11T13:34:11.151Z,19.60
2022-09-11T13:39:20.499Z,19.40
2022-09-11T13:44:45.756Z,19.20
2022-09-11T13:50:08.270Z,19.20
2022-09-11T13:55:20.888Z,19.40
2022-09-11T14:00:48.226Z,19.70
2022-09-11T14:06:00.745Z,19.70
2022-09-11T14:11:17.731Z,19.70
2022-09-11T14:16:42.239Z,19.60
2022-09-11T14:21:50.564Z,19.40
2022-09-11T14:27:02.995Z,19.40
2022-09-11T14:32:34.406Z,19.30
2022-09-11T14:37:45.429Z,19.40
2022-09-11T14:42:50.850Z,19.30
2022-09-11T14:47:56.639Z,19.30
2022-09-11T14:53:01.958Z,19.30
2022-09-11T14:58:07.358Z,19.40
2022-09-11T15:03:15.712Z,19.30
2022-09-11T15:08:21.071Z,19.30
2022-09-11T15:13:27.536Z,19.20
2022-09-11T15:18:36.681Z,19.20
2022-09-11T15:23:42.066Z,19.20
2022-09-11T15:28:52.278Z,19.20
2022-09-11T15:33:57.681Z,18.80
2022-09-11T15:39:03.911Z,18.40
2022-09-11T15:44:11.646Z,18.10
2022-09-11T15:49:24.595Z,18.00
2022-09-11T15:54:32.127Z,18.10
2022-09-11T15:59:41.692Z,18.00
2022-09-11T16:04:53.743Z,18.00
2022-09-11T16:10:10.183Z,18.00
2022-09-11T16:15:30.083Z,18.00
2022-09-11T16:21:08.161Z,17.90
2022-09-11T16:26:27.210Z,17.80
2022-09-11T16:37:47.255Z,17.60
2022-09-11T16:42:57.367Z,17.50
2022-09-11T16:48:04.227Z,17.40
2022-09-11T16:53:10.469Z,17.20
2022-09-11T16:58:16.518Z,17.10
2022-09-11T17:03:25.736Z,16.90
2022-09-11T17:08:31.246Z,16.70
2022-09-11T17:13:37.390Z,16.60
2022-09-11T17:18:43.031Z,16.30
2022-09-11T17:23:53.042Z,16.20
2022-09-11T17:29:13.570Z,16.00
2022-09-11T17:34:26.523Z,15.90
2022-09-11T17:39:33.519Z,15.70
2022-09-11T17:44:40.570Z,15.50
2022-09-11T17:49:46.117Z,15.40
2022-09-11T17:54:51.647Z,15.30
2022-09-11T17:59:58.054Z,15.20
2022-09-11T18:05:09.910Z,15.10
2022-09-11T18:10:20.410Z,15.00
2022-09-11T18:15:26.635Z,14.90
2022-09-11T18:20:31.967Z,14.90
2022-09-11T18:25:41.423Z,14.80
2022-09-11T18:30:47.579Z,14.80
2022-09-11T18:35:52.996Z,14.60
2022-09-11T18:41:04.642Z,14.50
2022-09-11T18:46:12.079Z,14.40
2022-09-11T18:51:20.436Z,14.30
2022-09-11T18:56:28.578Z,14.20
2022-09-11T19:01:34.633Z,14.10
2022-09-11T19:06:41.219Z,14.20
2022-09-11T19:11:46.490Z,14.10
2022-09-11T19:16:54.031Z,14.10
2022-09-11T19:22:00.373Z,14.00
2022-09-11T19:27:05.969Z,13.90
2022-09-11T19:32:12.843Z,13.80
2022-09-11T19:37:20.215Z,13.70
2022-09-11T19:42:27.930Z,13.60
2022-09-11T19:47:33.468Z,13.50
2022-09-11T19:52:39.551Z,13.30
2022-09-11T19:57:45.412Z,13.20
2022-09-11T20:02:50.624Z,13.10
2022-09-11T20:07:57.025Z,13.00
2022-09-11T20:13:02.386Z,12.80
2022-09-11T20:18:10.833Z,12.80
2022-09-11T20:23:18.613Z,12.70
2022-09-11T20:28:24.352Z,12.60
2022-09-11T20:33:29.745Z,12.50
2022-09-11T20:38:35.736Z,12.40
2022-09-11T20:43:41.824Z,12.30
2022-09-11T20:48:51.727Z,12.30
2022-09-11T20:53:57.958Z,12.20
2022-09-11T20:59:03.561Z,12.20
2022-09-11T21:04:08.849Z,12.20
2022-09-11T21:09:14.330Z,12.10
2022-09-11T21:14:20.463Z,12.10
2022-09-11T21:19:26.088Z,12.00
2022-09-11T21:24:31.351Z,12.00
2022-09-11T21:29:37.485Z,12.00
2022-09-11T21:34:42.813Z,11.90
2022-09-11T21:39:48.144Z,11.80
2022-09-11T21:44:56.805Z,11.80
2022-09-11T21:50:03.677Z,11.80
2022-09-11T21:55:09.503Z,11.70
2022-09-11T22:00:15.272Z,11.70
2022-09-11T22:05:20.585Z,11.70
2022-09-11T22:10:26.949Z,11.60
2022-09-11T22:15:32.187Z,11.60
2022-09-11T22:20:41.978Z,11.60
2022-09-11T22:25:48.924Z,11.50
2022-09-11T22:30:54.245Z,11.40
2022-09-11T22:35:59.563Z,11.40
2022-09-11T22:41:05.660Z,11.30
2022-09-11T22:46:11.028Z,11.30
2022-09-11T22:51:16.950Z,11.20
2022-09-11T22:56:22.424Z,11.10
2022-09-11T23:01:28.261Z,11.00
2022-09-11T23:06:51.709Z,11.00
2022-09-11T23:11:57.432Z,11.00
2022-09-11T23:17:04.277Z,11.00
2022-09-11T23:22:09.607Z,10.90
2022-09-11T23:27:14.891Z,10.80
2022-09-11T23:32:20.291Z,10.70
2022-09-11T23:37:25.491Z,10.60
2022-09-11T23:42:30.893Z,10.50
2022-09-11T23:47:36.234Z,10.30
2022-09-11T23:52:41.473Z,10.20
2022-09-11T23:57:48.748Z,10.10
